sensor_id;sensor_type;location;lat;lon;timestamp;P1;durP1;ratioP1;P2;durP2;ratioP2
6564;SDS011;3316;44.118;27.258;2023-08-17T00:00:45;11.40;;;6.05;;
6564;SDS011;3316;44.118;27.258;2023-08-17T00:03:10;9.70;;;6.80;;
6564;SDS011;3316;44.118;27.258;2023-08-17T00:05:36;11.52;;;6.70;;
6564;SDS011;3316;44.118;27.258;2023-08-17T00:08:02;13.57;;;6.10;;
6564;SDS011;3316;44.118;27.258;2023-08-17T00:10:28;9.30;;;6.45;;
6564;SDS011;3316;44.118;27.258;2023-08-17T00:12:53;9.80;;;6.18;;
6564;SDS011;3316;44.118;27.258;2023-08-17T00:15:19;12.60;;;6.65;;
6564;SDS011;3316;44.118;27.258;2023-08-17T00:17:44;11.43;;;6.82;;
6564;SDS011;3316;44.118;27.258;2023-08-17T00:20:10;20.15;;;7.18;;
6564;SDS011;3316;44.118;27.258;2023-08-17T00:22:36;8.60;;;6.10;;
6564;SDS011;3316;44.118;27.258;2023-08-17T00:25:02;8.63;;;6.93;;
6564;SDS011;3316;44.118;27.258;2023-08-17T00:27:31;13.50;;;7.10;;
6564;SDS011;3316;44.118;27.258;2023-08-17T00:29:57;13.05;;;7.00;;
6564;SDS011;3316;44.118;27.258;2023-08-17T00:32:23;14.23;;;6.57;;
6564;SDS011;3316;44.118;27.258;2023-08-17T00:34:48;8.85;;;6.60;;
6564;SDS011;3316;44.118;27.258;2023-08-17T00:37:14;12.50;;;6.75;;
6564;SDS011;3316;44.118;27.258;2023-08-17T00:39:39;9.85;;;6.72;;
6564;SDS011;3316;44.118;27.258;2023-08-17T00:42:04;8.73;;;7.18;;
6564;SDS011;3316;44.118;27.258;2023-08-17T00:44:30;11.05;;;6.65;;
6564;SDS011;3316;44.118;27.258;2023-08-17T00:46:55;11.95;;;6.97;;
6564;SDS011;3316;44.118;27.258;2023-08-17T00:49:21;12.38;;;6.60;;
6564;SDS011;3316;44.118;27.258;2023-08-17T00:51:47;11.05;;;7.07;;
6564;SDS011;3316;44.118;27.258;2023-08-17T00:54:13;10.15;;;6.90;;
6564;SDS011;3316;44.118;27.258;2023-08-17T00:56:44;11.32;;;7.47;;
6564;SDS011;3316;44.118;27.258;2023-08-17T00:59:09;10.90;;;7.28;;
6564;SDS011;3316;44.118;27.258;2023-08-17T01:01:35;11.23;;;6.90;;
6564;SDS011;3316;44.118;27.258;2023-08-17T01:04:00;10.68;;;7.07;;
6564;SDS011;3316;44.118;27.258;2023-08-17T01:06:26;12.35;;;7.10;;
6564;SDS011;3316;44.118;27.258;2023-08-17T01:08:51;9.18;;;7.13;;
6564;SDS011;3316;44.118;27.258;2023-08-17T01:16:43;10.82;;;7.13;;
6564;SDS011;3316;44.118;27.258;2023-08-17T01:19:17;10.68;;;7.07;;
6564;SDS011;3316;44.118;27.258;2023-08-17T01:21:53;14.82;;;7.65;;
6564;SDS011;3316;44.118;27.258;2023-08-17T01:24:22;13.73;;;6.95;;
6564;SDS011;3316;44.118;27.258;2023-08-17T01:26:47;13.05;;;7.50;;
6564;SDS011;3316;44.118;27.258;2023-08-17T01:29:12;7.35;;;6.18;;
6564;SDS011;3316;44.118;27.258;2023-08-17T01:31:47;10.57;;;7.05;;
6564;SDS011;3316;44.118;27.258;2023-08-17T01:34:22;9.35;;;7.30;;
6564;SDS011;3316;44.118;27.258;2023-08-17T01:36:53;11.18;;;7.28;;
6564;SDS011;3316;44.118;27.258;2023-08-17T01:39:24;13.35;;;7.72;;
6564;SDS011;3316;44.118;27.258;2023-08-17T01:41:55;12.52;;;7.40;;
6564;SDS011;3316;44.118;27.258;2023-08-17T01:44:23;11.70;;;7.30;;
6564;SDS011;3316;44.118;27.258;2023-08-17T01:46:51;9.23;;;7.10;;
6564;SDS011;3316;44.118;27.258;2023-08-17T01:49:16;12.55;;;6.65;;
6564;SDS011;3316;44.118;27.258;2023-08-17T01:51:41;11.38;;;7.38;;
6564;SDS011;3316;44.118;27.258;2023-08-17T01:54:07;9.30;;;7.20;;
6564;SDS011;3316;44.118;27.258;2023-08-17T01:56:33;12.27;;;7.90;;
6564;SDS011;3316;44.118;27.258;2023-08-17T01:58:58;10.05;;;7.43;;
6564;SDS011;3316;44.118;27.258;2023-08-17T02:01:23;12.38;;;7.20;;
6564;SDS011;3316;44.118;27.258;2023-08-17T02:03:49;12.63;;;7.20;;
6564;SDS011;3316;44.118;27.258;2023-08-17T02:06:14;12.20;;;7.18;;
6564;SDS011;3316;44.118;27.258;2023-08-17T02:08:40;10.73;;;7.20;;
6564;SDS011;3316;44.118;27.258;2023-08-17T02:11:06;9.38;;;7.50;;
6564;SDS011;3316;44.118;27.258;2023-08-17T02:13:31;10.70;;;7.28;;
6564;SDS011;3316;44.118;27.258;2023-08-17T02:15:57;13.35;;;8.00;;
6564;SDS011;3316;44.118;27.258;2023-08-17T02:18:22;11.02;;;7.85;;
6564;SDS011;3316;44.118;27.258;2023-08-17T02:20:48;10.23;;;7.80;;
6564;SDS011;3316;44.118;27.258;2023-08-17T02:23:13;13.48;;;8.15;;
6564;SDS011;3316;44.118;27.258;2023-08-17T02:25:39;10.48;;;7.47;;
6564;SDS011;3316;44.118;27.258;2023-08-17T02:28:05;14.00;;;8.40;;
6564;SDS011;3316;44.118;27.258;2023-08-17T02:30:30;9.95;;;7.32;;
6564;SDS011;3316;44.118;27.258;2023-08-17T02:32:56;9.88;;;7.55;;
6564;SDS011;3316;44.118;27.258;2023-08-17T02:35:22;10.95;;;7.70;;
6564;SDS011;3316;44.118;27.258;2023-08-17T02:37:47;15.40;;;7.82;;
6564;SDS011;3316;44.118;27.258;2023-08-17T02:40:13;10.15;;;7.90;;
6564;SDS011;3316;44.118;27.258;2023-08-17T02:42:38;12.07;;;7.75;;
6564;SDS011;3316;44.118;27.258;2023-08-17T02:45:05;14.05;;;7.60;;
6564;SDS011;3316;44.118;27.258;2023-08-17T02:47:31;13.57;;;7.78;;
6564;SDS011;3316;44.118;27.258;2023-08-17T02:49:57;13.20;;;7.55;;
6564;SDS011;3316;44.118;27.258;2023-08-17T02:52:23;10.55;;;8.23;;
6564;SDS011;3316;44.118;27.258;2023-08-17T02:54:48;16.00;;;8.65;;
6564;SDS011;3316;44.118;27.258;2023-08-17T02:57:13;15.25;;;8.25;;
6564;SDS011;3316;44.118;27.258;2023-08-17T02:59:39;15.98;;;9.00;;
6564;SDS011;3316;44.118;27.258;2023-08-17T03:02:04;15.98;;;8.55;;
6564;SDS011;3316;44.118;27.258;2023-08-17T03:04:30;12.82;;;8.85;;
6564;SDS011;3316;44.118;27.258;2023-08-17T03:06:55;14.57;;;8.63;;
6564;SDS011;3316;44.118;27.258;2023-08-17T03:09:21;9.85;;;7.60;;
6564;SDS011;3316;44.118;27.258;2023-08-17T03:11:46;13.73;;;7.75;;
6564;SDS011;3316;44.118;27.258;2023-08-17T03:14:11;15.82;;;8.13;;
6564;SDS011;3316;44.118;27.258;2023-08-17T03:16:37;15.38;;;8.77;;
6564;SDS011;3316;44.118;27.258;2023-08-17T03:19:03;14.52;;;8.20;;
6564;SDS011;3316;44.118;27.258;2023-08-17T03:21:29;21.48;;;8.32;;
6564;SDS011;3316;44.118;27.258;2023-08-17T03:23:55;12.93;;;9.00;;
6564;SDS011;3316;44.118;27.258;2023-08-17T03:26:20;13.40;;;8.60;;
6564;SDS011;3316;44.118;27.258;2023-08-17T03:28:46;15.15;;;9.13;;
6564;SDS011;3316;44.118;27.258;2023-08-17T03:31:11;17.30;;;9.05;;
6564;SDS011;3316;44.118;27.258;2023-08-17T03:33:36;16.67;;;8.82;;
6564;SDS011;3316;44.118;27.258;2023-08-17T03:36:02;12.05;;;8.70;;
6564;SDS011;3316;44.118;27.258;2023-08-17T03:38:28;17.15;;;9.73;;
6564;SDS011;3316;44.118;27.258;2023-08-17T03:40:53;19.63;;;10.13;;
6564;SDS011;3316;44.118;27.258;2023-08-17T03:43:19;17.95;;;10.25;;
6564;SDS011;3316;44.118;27.258;2023-08-17T03:45:45;17.85;;;10.60;;
6564;SDS011;3316;44.118;27.258;2023-08-17T03:48:10;17.98;;;9.38;;
6564;SDS011;3316;44.118;27.258;2023-08-17T03:50:37;17.17;;;9.38;;
6564;SDS011;3316;44.118;27.258;2023-08-17T03:53:02;13.65;;;9.68;;
6564;SDS011;3316;44.118;27.258;2023-08-17T03:55:28;26.77;;;12.50;;
6564;SDS011;3316;44.118;27.258;2023-08-17T03:57:53;15.60;;;9.57;;
6564;SDS011;3316;44.118;27.258;2023-08-17T04:00:18;13.15;;;9.32;;
6564;SDS011;3316;44.118;27.258;2023-08-17T04:02:44;15.23;;;10.48;;
6564;SDS011;3316;44.118;27.258;2023-08-17T04:05:09;18.02;;;10.63;;
6564;SDS011;3316;44.118;27.258;2023-08-17T04:07:36;15.35;;;9.60;;
6564;SDS011;3316;44.118;27.258;2023-08-17T04:10:02;15.25;;;9.75;;
6564;SDS011;3316;44.118;27.258;2023-08-17T04:12:28;15.68;;;9.77;;
6564;SDS011;3316;44.118;27.258;2023-08-17T04:14:53;20.30;;;10.07;;
6564;SDS011;3316;44.118;27.258;2023-08-17T04:17:19;15.00;;;8.98;;
6564;SDS011;3316;44.118;27.258;2023-08-17T04:19:46;17.52;;;9.40;;
6564;SDS011;3316;44.118;27.258;2023-08-17T04:22:11;20.50;;;9.95;;
6564;SDS011;3316;44.118;27.258;2023-08-17T04:24:37;19.33;;;12.85;;
6564;SDS011;3316;44.118;27.258;2023-08-17T04:27:03;22.48;;;13.27;;
6564;SDS011;3316;44.118;27.258;2023-08-17T04:29:29;25.23;;;9.32;;
6564;SDS011;3316;44.118;27.258;2023-08-17T04:31:55;15.93;;;8.90;;
6564;SDS011;3316;44.118;27.258;2023-08-17T04:34:21;10.88;;;9.63;;
6564;SDS011;3316;44.118;27.258;2023-08-17T04:36:46;15.82;;;9.55;;
6564;SDS011;3316;44.118;27.258;2023-08-17T04:39:12;19.80;;;10.63;;
6564;SDS011;3316;44.118;27.258;2023-08-17T04:41:37;16.65;;;9.63;;
6564;SDS011;3316;44.118;27.258;2023-08-17T04:44:03;16.70;;;9.45;;
6564;SDS011;3316;44.118;27.258;2023-08-17T04:46:29;22.10;;;10.32;;
6564;SDS011;3316;44.118;27.258;2023-08-17T04:48:54;15.38;;;9.60;;
6564;SDS011;3316;44.118;27.258;2023-08-17T04:51:20;15.25;;;10.10;;
6564;SDS011;3316;44.118;27.258;2023-08-17T04:53:46;13.73;;;9.57;;
6564;SDS011;3316;44.118;27.258;2023-08-17T04:56:11;14.93;;;9.07;;
6564;SDS011;3316;44.118;27.258;2023-08-17T04:58:36;15.43;;;10.15;;
6564;SDS011;3316;44.118;27.258;2023-08-17T05:01:02;22.40;;;10.23;;
6564;SDS011;3316;44.118;27.258;2023-08-17T05:03:27;13.00;;;9.50;;
6564;SDS011;3316;44.118;27.258;2023-08-17T05:05:53;14.07;;;10.73;;
6564;SDS011;3316;44.118;27.258;2023-08-17T05:08:18;16.42;;;9.90;;
6564;SDS011;3316;44.118;27.258;2023-08-17T05:10:44;15.45;;;10.73;;
6564;SDS011;3316;44.118;27.258;2023-08-17T05:13:09;15.98;;;10.50;;
6564;SDS011;3316;44.118;27.258;2023-08-17T05:15:35;14.05;;;10.30;;
6564;SDS011;3316;44.118;27.258;2023-08-17T05:18:00;12.60;;;10.30;;
6564;SDS011;3316;44.118;27.258;2023-08-17T05:20:26;18.00;;;9.98;;
6564;SDS011;3316;44.118;27.258;2023-08-17T05:22:51;21.52;;;10.93;;
6564;SDS011;3316;44.118;27.258;2023-08-17T05:25:16;13.93;;;9.95;;
6564;SDS011;3316;44.118;27.258;2023-08-17T05:27:42;14.60;;;10.27;;
6564;SDS011;3316;44.118;27.258;2023-08-17T05:30:07;16.00;;;10.20;;
6564;SDS011;3316;44.118;27.258;2023-08-17T05:32:33;16.92;;;10.32;;
6564;SDS011;3316;44.118;27.258;2023-08-17T05:34:59;20.67;;;10.60;;
6564;SDS011;3316;44.118;27.258;2023-08-17T05:37:24;17.45;;;10.02;;
6564;SDS011;3316;44.118;27.258;2023-08-17T05:39:50;20.13;;;10.13;;
6564;SDS011;3316;44.118;27.258;2023-08-17T05:42:15;45.13;;;16.25;;
6564;SDS011;3316;44.118;27.258;2023-08-17T05:44:41;13.27;;;9.40;;
6564;SDS011;3316;44.118;27.258;2023-08-17T05:47:06;20.17;;;9.80;;
6564;SDS011;3316;44.118;27.258;2023-08-17T05:49:32;26.83;;;10.52;;
6564;SDS011;3316;44.118;27.258;2023-08-17T05:51:57;26.92;;;10.95;;
6564;SDS011;3316;44.118;27.258;2023-08-17T05:54:23;58.85;;;11.68;;
6564;SDS011;3316;44.118;27.258;2023-08-17T05:56:48;14.55;;;8.73;;
6564;SDS011;3316;44.118;27.258;2023-08-17T05:59:13;43.08;;;12.18;;
6564;SDS011;3316;44.118;27.258;2023-08-17T06:01:39;22.35;;;10.75;;
6564;SDS011;3316;44.118;27.258;2023-08-17T06:04:05;16.17;;;9.75;;
6564;SDS011;3316;44.118;27.258;2023-08-17T06:06:31;26.60;;;13.20;;
6564;SDS011;3316;44.118;27.258;2023-08-17T06:08:56;37.88;;;10.27;;
6564;SDS011;3316;44.118;27.258;2023-08-17T06:11:22;23.52;;;9.90;;
6564;SDS011;3316;44.118;27.258;2023-08-17T06:13:48;19.20;;;8.82;;
6564;SDS011;3316;44.118;27.258;2023-08-17T06:16:14;18.05;;;8.57;;
6564;SDS011;3316;44.118;27.258;2023-08-17T06:18:40;16.63;;;8.50;;
6564;SDS011;3316;44.118;27.258;2023-08-17T06:21:06;26.83;;;9.88;;
6564;SDS011;3316;44.118;27.258;2023-08-17T06:23:32;21.23;;;9.32;;
6564;SDS011;3316;44.118;27.258;2023-08-17T06:25:57;17.75;;;8.52;;
6564;SDS011;3316;44.118;27.258;2023-08-17T06:28:24;16.05;;;7.93;;
6564;SDS011;3316;44.118;27.258;2023-08-17T06:30:53;15.02;;;7.90;;
6564;SDS011;3316;44.118;27.258;2023-08-17T06:33:20;17.05;;;8.00;;
6564;SDS011;3316;44.118;27.258;2023-08-17T06:35:46;18.35;;;7.88;;
6564;SDS011;3316;44.118;27.258;2023-08-17T06:38:12;15.00;;;8.20;;
6564;SDS011;3316;44.118;27.258;2023-08-17T06:40:38;13.95;;;8.40;;
6564;SDS011;3316;44.118;27.258;2023-08-17T06:43:03;17.80;;;7.63;;
6564;SDS011;3316;44.118;27.258;2023-08-17T06:45:31;18.13;;;8.13;;
6564;SDS011;3316;44.118;27.258;2023-08-17T06:47:56;13.85;;;8.23;;
6564;SDS011;3316;44.118;27.258;2023-08-17T06:50:22;13.30;;;8.27;;
6564;SDS011;3316;44.118;27.258;2023-08-17T06:52:47;40.08;;;11.82;;
6564;SDS011;3316;44.118;27.258;2023-08-17T06:55:13;13.25;;;7.70;;
6564;SDS011;3316;44.118;27.258;2023-08-17T06:57:38;11.90;;;7.55;;
6564;SDS011;3316;44.118;27.258;2023-08-17T07:00:04;15.35;;;7.93;;
6564;SDS011;3316;44.118;27.258;2023-08-17T07:02:30;8.77;;;7.20;;
6564;SDS011;3316;44.118;27.258;2023-08-17T07:04:56;14.75;;;7.45;;
6564;SDS011;3316;44.118;27.258;2023-08-17T07:07:22;21.00;;;9.48;;
6564;SDS011;3316;44.118;27.258;2023-08-17T07:09:47;10.98;;;7.10;;
6564;SDS011;3316;44.118;27.258;2023-08-17T07:12:13;9.55;;;6.97;;
6564;SDS011;3316;44.118;27.258;2023-08-17T07:14:38;11.07;;;6.90;;
6564;SDS011;3316;44.118;27.258;2023-08-17T07:17:03;16.70;;;6.68;;
6564;SDS011;3316;44.118;27.258;2023-08-17T07:19:29;24.63;;;7.45;;
6564;SDS011;3316;44.118;27.258;2023-08-17T07:21:54;17.17;;;6.60;;
6564;SDS011;3316;44.118;27.258;2023-08-17T07:24:20;27.77;;;7.28;;
6564;SDS011;3316;44.118;27.258;2023-08-17T07:26:46;8.88;;;6.30;;
6564;SDS011;3316;44.118;27.258;2023-08-17T07:29:11;8.40;;;6.03;;
6564;SDS011;3316;44.118;27.258;2023-08-17T07:31:37;10.32;;;6.45;;
6564;SDS011;3316;44.118;27.258;2023-08-17T07:34:06;12.30;;;6.05;;
6564;SDS011;3316;44.118;27.258;2023-08-17T07:36:32;10.98;;;6.28;;
6564;SDS011;3316;44.118;27.258;2023-08-17T07:38:58;24.42;;;7.57;;
6564;SDS011;3316;44.118;27.258;2023-08-17T07:41:24;8.23;;;6.10;;
6564;SDS011;3316;44.118;27.258;2023-08-17T07:43:50;16.42;;;6.05;;
6564;SDS011;3316;44.118;27.258;2023-08-17T07:46:15;11.35;;;6.13;;
6564;SDS011;3316;44.118;27.258;2023-08-17T07:48:41;8.65;;;5.43;;
6564;SDS011;3316;44.118;27.258;2023-08-17T07:51:06;8.38;;;5.53;;
6564;SDS011;3316;44.118;27.258;2023-08-17T07:53:32;10.18;;;5.78;;
6564;SDS011;3316;44.118;27.258;2023-08-17T07:55:57;8.13;;;5.13;;
6564;SDS011;3316;44.118;27.258;2023-08-17T07:58:23;18.77;;;5.72;;
6564;SDS011;3316;44.118;27.258;2023-08-17T08:00:49;14.35;;;6.75;;
6564;SDS011;3316;44.118;27.258;2023-08-17T08:03:14;16.30;;;6.57;;
6564;SDS011;3316;44.118;27.258;2023-08-17T08:05:40;7.45;;;4.82;;
6564;SDS011;3316;44.118;27.258;2023-08-17T08:08:05;11.43;;;5.03;;
6564;SDS011;3316;44.118;27.258;2023-08-17T08:10:31;8.73;;;5.00;;
6564;SDS011;3316;44.118;27.258;2023-08-17T08:12:57;20.73;;;4.93;;
6564;SDS011;3316;44.118;27.258;2023-08-17T08:15:22;8.88;;;4.72;;
6564;SDS011;3316;44.118;27.258;2023-08-17T08:17:47;8.07;;;4.65;;
6564;SDS011;3316;44.118;27.258;2023-08-17T08:20:13;7.15;;;4.25;;
6564;SDS011;3316;44.118;27.258;2023-08-17T08:22:38;10.93;;;4.30;;
6564;SDS011;3316;44.118;27.258;2023-08-17T08:25:04;17.00;;;4.50;;
6564;SDS011;3316;44.118;27.258;2023-08-17T08:27:30;6.22;;;3.85;;
6564;SDS011;3316;44.118;27.258;2023-08-17T08:29:55;18.40;;;4.72;;
6564;SDS011;3316;44.118;27.258;2023-08-17T08:32:20;7.75;;;4.47;;
6564;SDS011;3316;44.118;27.258;2023-08-17T08:34:46;9.50;;;4.78;;
6564;SDS011;3316;44.118;27.258;2023-08-17T08:37:11;20.30;;;5.28;;
6564;SDS011;3316;44.118;27.258;2023-08-17T08:39:53;6.88;;;3.92;;
6564;SDS011;3316;44.118;27.258;2023-08-17T08:42:20;5.43;;;4.22;;
6564;SDS011;3316;44.118;27.258;2023-08-17T08:44:46;6.60;;;4.15;;
6564;SDS011;3316;44.118;27.258;2023-08-17T08:47:12;7.65;;;4.55;;
6564;SDS011;3316;44.118;27.258;2023-08-17T08:49:43;5.03;;;4.53;;
6564;SDS011;3316;44.118;27.258;2023-08-17T08:52:19;9.95;;;4.05;;
6564;SDS011;3316;44.118;27.258;2023-08-17T08:54:49;7.57;;;4.55;;
6564;SDS011;3316;44.118;27.258;2023-08-17T08:57:18;8.07;;;4.68;;
6564;SDS011;3316;44.118;27.258;2023-08-17T08:59:44;5.60;;;4.40;;
6564;SDS011;3316;44.118;27.258;2023-08-17T09:02:14;7.15;;;4.13;;
6564;SDS011;3316;44.118;27.258;2023-08-17T09:04:43;12.52;;;5.15;;
6564;SDS011;3316;44.118;27.258;2023-08-17T09:07:12;10.95;;;5.65;;
6564;SDS011;3316;44.118;27.258;2023-08-17T09:09:42;6.78;;;4.30;;
6564;SDS011;3316;44.118;27.258;2023-08-17T09:12:10;4.28;;;3.80;;
6564;SDS011;3316;44.118;27.258;2023-08-17T09:14:36;10.15;;;4.70;;
6564;SDS011;3316;44.118;27.258;2023-08-17T09:17:02;6.32;;;4.55;;
6564;SDS011;3316;44.118;27.258;2023-08-17T09:19:29;6.35;;;4.30;;
6564;SDS011;3316;44.118;27.258;2023-08-17T09:22:00;7.80;;;5.07;;
6564;SDS011;3316;44.118;27.258;2023-08-17T09:24:35;7.57;;;4.45;;
6564;SDS011;3316;44.118;27.258;2023-08-17T09:27:04;10.27;;;4.85;;
6564;SDS011;3316;44.118;27.258;2023-08-17T09:29:30;9.00;;;5.00;;
6564;SDS011;3316;44.118;27.258;2023-08-17T09:32:06;7.43;;;4.85;;
6564;SDS011;3316;44.118;27.258;2023-08-17T09:34:32;8.25;;;4.78;;
6564;SDS011;3316;44.118;27.258;2023-08-17T09:37:07;6.25;;;4.57;;
6564;SDS011;3316;44.118;27.258;2023-08-17T09:39:32;7.85;;;4.47;;
6564;SDS011;3316;44.118;27.258;2023-08-17T09:41:59;9.88;;;5.28;;
6564;SDS011;3316;44.118;27.258;2023-08-17T09:44:25;8.00;;;5.10;;
6564;SDS011;3316;44.118;27.258;2023-08-17T09:46:50;9.18;;;5.15;;
6564;SDS011;3316;44.118;27.258;2023-08-17T09:49:17;7.15;;;5.00;;
6564;SDS011;3316;44.118;27.258;2023-08-17T09:51:43;5.32;;;4.80;;
6564;SDS011;3316;44.118;27.258;2023-08-17T09:54:18;10.13;;;5.20;;
6564;SDS011;3316;44.118;27.258;2023-08-17T09:56:47;10.50;;;5.07;;
6564;SDS011;3316;44.118;27.258;2023-08-17T09:59:14;9.88;;;5.05;;
6564;SDS011;3316;44.118;27.258;2023-08-17T10:01:40;14.57;;;4.78;;
6564;SDS011;3316;44.118;27.258;2023-08-17T10:04:07;11.82;;;4.38;;
6564;SDS011;3316;44.118;27.258;2023-08-17T10:06:33;11.98;;;5.30;;
6564;SDS011;3316;44.118;27.258;2023-08-17T10:09:03;11.52;;;5.55;;
6564;SDS011;3316;44.118;27.258;2023-08-17T10:11:29;7.47;;;4.45;;
6564;SDS011;3316;44.118;27.258;2023-08-17T10:14:01;16.73;;;5.20;;
6564;SDS011;3316;44.118;27.258;2023-08-17T10:16:49;15.77;;;6.10;;
6564;SDS011;3316;44.118;27.258;2023-08-17T10:19:25;6.70;;;4.93;;
6564;SDS011;3316;44.118;27.258;2023-08-17T10:24:45;10.93;;;4.97;;
6564;SDS011;3316;44.118;27.258;2023-08-17T10:27:11;7.35;;;4.65;;
6564;SDS011;3316;44.118;27.258;2023-08-17T10:29:38;5.35;;;4.80;;
6564;SDS011;3316;44.118;27.258;2023-08-17T10:32:05;8.68;;;5.35;;
6564;SDS011;3316;44.118;27.258;2023-08-17T10:34:32;9.18;;;5.22;;
6564;SDS011;3316;44.118;27.258;2023-08-17T10:36:59;8.50;;;5.20;;
6564;SDS011;3316;44.118;27.258;2023-08-17T10:39:26;8.85;;;5.22;;
6564;SDS011;3316;44.118;27.258;2023-08-17T10:41:53;9.45;;;5.43;;
6564;SDS011;3316;44.118;27.258;2023-08-17T10:47:46;7.95;;;4.75;;
6564;SDS011;3316;44.118;27.258;2023-08-17T10:50:04;8.57;;;4.72;;
6564;SDS011;3316;44.118;27.258;2023-08-17T10:52:36;7.70;;;5.25;;
6564;SDS011;3316;44.118;27.258;2023-08-17T10:55:05;9.43;;;4.93;;
6564;SDS011;3316;44.118;27.258;2023-08-17T10:57:36;8.48;;;5.57;;
6564;SDS011;3316;44.118;27.258;2023-08-17T11:05:36;10.48;;;5.18;;
6564;SDS011;3316;44.118;27.258;2023-08-17T11:08:20;7.00;;;5.18;;
6564;SDS011;3316;44.118;27.258;2023-08-17T11:10:47;8.35;;;5.28;;
6564;SDS011;3316;44.118;27.258;2023-08-17T11:13:21;9.77;;;5.20;;
6564;SDS011;3316;44.118;27.258;2023-08-17T11:15:48;8.77;;;5.72;;
6564;SDS011;3316;44.118;27.258;2023-08-17T11:18:14;10.68;;;5.25;;
6564;SDS011;3316;44.118;27.258;2023-08-17T11:20:41;10.68;;;5.57;;
6564;SDS011;3316;44.118;27.258;2023-08-17T11:23:08;6.18;;;4.65;;
6564;SDS011;3316;44.118;27.258;2023-08-17T11:25:34;8.75;;;5.28;;
6564;SDS011;3316;44.118;27.258;2023-08-17T11:28:00;17.23;;;5.82;;
6564;SDS011;3316;44.118;27.258;2023-08-17T11:30:27;9.30;;;5.53;;
6564;SDS011;3316;44.118;27.258;2023-08-17T11:32:53;13.88;;;6.30;;
6564;SDS011;3316;44.118;27.258;2023-08-17T11:35:20;12.15;;;5.40;;
6564;SDS011;3316;44.118;27.258;2023-08-17T11:37:46;7.68;;;5.55;;
6564;SDS011;3316;44.118;27.258;2023-08-17T11:40:16;17.33;;;5.60;;
6564;SDS011;3316;44.118;27.258;2023-08-17T11:42:42;15.93;;;4.57;;
6564;SDS011;3316;44.118;27.258;2023-08-17T11:45:08;15.18;;;5.22;;
6564;SDS011;3316;44.118;27.258;2023-08-17T11:47:35;6.55;;;4.93;;
6564;SDS011;3316;44.118;27.258;2023-08-17T11:50:04;13.10;;;5.15;;
6564;SDS011;3316;44.118;27.258;2023-08-17T11:52:34;8.90;;;4.78;;
6564;SDS011;3316;44.118;27.258;2023-08-17T11:55:03;12.07;;;4.90;;
6564;SDS011;3316;44.118;27.258;2023-08-17T11:57:30;11.70;;;5.07;;
6564;SDS011;3316;44.118;27.258;2023-08-17T11:59:57;8.57;;;4.88;;
6564;SDS011;3316;44.118;27.258;2023-08-17T12:02:24;9.30;;;4.95;;
6564;SDS011;3316;44.118;27.258;2023-08-17T12:04:51;13.60;;;5.07;;
6564;SDS011;3316;44.118;27.258;2023-08-17T12:07:19;10.45;;;5.35;;
6564;SDS011;3316;44.118;27.258;2023-08-17T12:09:47;7.65;;;4.72;;
6564;SDS011;3316;44.118;27.258;2023-08-17T12:12:16;7.68;;;5.10;;
6564;SDS011;3316;44.118;27.258;2023-08-17T12:14:42;5.78;;;4.93;;
6564;SDS011;3316;44.118;27.258;2023-08-17T12:17:13;10.82;;;4.93;;
6564;SDS011;3316;44.118;27.258;2023-08-17T12:19:42;18.23;;;5.30;;
6564;SDS011;3316;44.118;27.258;2023-08-17T12:22:09;10.43;;;4.95;;
6564;SDS011;3316;44.118;27.258;2023-08-17T12:24:35;13.43;;;5.55;;
6564;SDS011;3316;44.118;27.258;2023-08-17T12:27:05;15.38;;;5.70;;
6564;SDS011;3316;44.118;27.258;2023-08-17T12:29:31;19.15;;;6.55;;
6564;SDS011;3316;44.118;27.258;2023-08-17T12:31:57;6.40;;;5.00;;
6564;SDS011;3316;44.118;27.258;2023-08-17T12:34:22;9.63;;;5.20;;
6564;SDS011;3316;44.118;27.258;2023-08-17T12:36:48;7.95;;;5.22;;
6564;SDS011;3316;44.118;27.258;2023-08-17T12:39:14;12.27;;;5.45;;
6564;SDS011;3316;44.118;27.258;2023-08-17T12:41:40;20.88;;;6.00;;
6564;SDS011;3316;44.118;27.258;2023-08-17T12:44:06;9.70;;;4.75;;
6564;SDS011;3316;44.118;27.258;2023-08-17T12:46:31;6.60;;;5.28;;
6564;SDS011;3316;44.118;27.258;2023-08-17T12:48:58;8.88;;;5.43;;
6564;SDS011;3316;44.118;27.258;2023-08-17T12:51:24;7.97;;;5.20;;
6564;SDS011;3316;44.118;27.258;2023-08-17T12:53:49;9.23;;;4.85;;
6564;SDS011;3316;44.118;27.258;2023-08-17T12:56:15;14.55;;;5.57;;
6564;SDS011;3316;44.118;27.258;2023-08-17T12:58:40;20.35;;;6.55;;
6564;SDS011;3316;44.118;27.258;2023-08-17T13:01:06;9.00;;;5.10;;
6564;SDS011;3316;44.118;27.258;2023-08-17T13:03:31;12.65;;;5.50;;
6564;SDS011;3316;44.118;27.258;2023-08-17T13:05:57;9.00;;;5.40;;
6564;SDS011;3316;44.118;27.258;2023-08-17T13:08:22;9.68;;;5.25;;
6564;SDS011;3316;44.118;27.258;2023-08-17T13:10:48;8.70;;;5.20;;
6564;SDS011;3316;44.118;27.258;2023-08-17T13:13:13;7.63;;;4.90;;
6564;SDS011;3316;44.118;27.258;2023-08-17T13:15:39;5.95;;;4.88;;
6564;SDS011;3316;44.118;27.258;2023-08-17T13:18:04;9.30;;;5.45;;
6564;SDS011;3316;44.118;27.258;2023-08-17T13:20:30;9.93;;;5.55;;
6564;SDS011;3316;44.118;27.258;2023-08-17T13:22:55;8.38;;;5.15;;
6564;SDS011;3316;44.118;27.258;2023-08-17T13:25:21;6.40;;;4.85;;
6564;SDS011;3316;44.118;27.258;2023-08-17T13:27:46;7.00;;;4.95;;
6564;SDS011;3316;44.118;27.258;2023-08-17T13:30:12;8.98;;;5.22;;
6564;SDS011;3316;44.118;27.258;2023-08-17T13:32:37;9.77;;;5.82;;
6564;SDS011;3316;44.118;27.258;2023-08-17T13:35:03;8.50;;;5.57;;
6564;SDS011;3316;44.118;27.258;2023-08-17T13:37:29;7.60;;;5.10;;
6564;SDS011;3316;44.118;27.258;2023-08-17T13:39:54;7.28;;;5.18;;
6564;SDS011;3316;44.118;27.258;2023-08-17T13:42:20;9.15;;;5.25;;
6564;SDS011;3316;44.118;27.258;2023-08-17T13:44:46;8.68;;;5.63;;
6564;SDS011;3316;44.118;27.258;2023-08-17T13:47:11;12.30;;;5.57;;
6564;SDS011;3316;44.118;27.258;2023-08-17T13:49:37;6.05;;;4.88;;
6564;SDS011;3316;44.118;27.258;2023-08-17T13:52:03;6.57;;;5.63;;
6564;SDS011;3316;44.118;27.258;2023-08-17T13:54:29;15.63;;;5.30;;
6564;SDS011;3316;44.118;27.258;2023-08-17T13:56:54;8.27;;;5.20;;
6564;SDS011;3316;44.118;27.258;2023-08-17T13:59:19;12.73;;;7.32;;
6564;SDS011;3316;44.118;27.258;2023-08-17T14:01:45;9.85;;;4.93;;
6564;SDS011;3316;44.118;27.258;2023-08-17T14:04:10;10.13;;;5.35;;
6564;SDS011;3316;44.118;27.258;2023-08-17T14:06:40;9.00;;;5.65;;
6564;SDS011;3316;44.118;27.258;2023-08-17T14:09:06;9.55;;;5.50;;
6564;SDS011;3316;44.118;27.258;2023-08-17T14:11:32;5.80;;;4.80;;
6564;SDS011;3316;44.118;27.258;2023-08-17T14:13:57;9.90;;;5.93;;
6564;SDS011;3316;44.118;27.258;2023-08-17T14:16:23;9.93;;;7.40;;
6564;SDS011;3316;44.118;27.258;2023-08-17T14:18:48;8.55;;;5.05;;
6564;SDS011;3316;44.118;27.258;2023-08-17T14:21:14;8.32;;;5.18;;
6564;SDS011;3316;44.118;27.258;2023-08-17T14:23:39;12.07;;;6.93;;
6564;SDS011;3316;44.118;27.258;2023-08-17T14:26:05;12.68;;;9.50;;
6564;SDS011;3316;44.118;27.258;2023-08-17T14:28:31;13.25;;;8.60;;
6564;SDS011;3316;44.118;27.258;2023-08-17T14:30:56;10.55;;;7.18;;
6564;SDS011;3316;44.118;27.258;2023-08-17T14:33:21;11.38;;;8.02;;
6564;SDS011;3316;44.118;27.258;2023-08-17T14:35:47;10.18;;;6.63;;
6564;SDS011;3316;44.118;27.258;2023-08-17T14:38:13;10.75;;;7.97;;
6564;SDS011;3316;44.118;27.258;2023-08-17T14:40:43;6.25;;;5.65;;
6564;SDS011;3316;44.118;27.258;2023-08-17T14:43:10;9.18;;;6.80;;
6564;SDS011;3316;44.118;27.258;2023-08-17T14:45:38;11.70;;;6.43;;
6564;SDS011;3316;44.118;27.258;2023-08-17T14:48:04;7.93;;;6.10;;
6564;SDS011;3316;44.118;27.258;2023-08-17T14:50:30;6.55;;;5.50;;
6564;SDS011;3316;44.118;27.258;2023-08-17T14:52:56;7.35;;;5.85;;
6564;SDS011;3316;44.118;27.258;2023-08-17T14:55:21;12.20;;;6.28;;
6564;SDS011;3316;44.118;27.258;2023-08-17T14:57:46;10.82;;;5.38;;
6564;SDS011;3316;44.118;27.258;2023-08-17T15:00:12;6.80;;;5.47;;
6564;SDS011;3316;44.118;27.258;2023-08-17T15:02:38;6.40;;;5.15;;